KGAI/GAI METAR and TAF weather

Enter ICAO airport designator
Station Type Date Time Source
KGAI METAR 2019/02/20 17:56 UTC NOAA

KGAI 201756Z AUTO 12008KT 8SM -SN OVC009 M01/M03 A3039 RMK AO2 CIG 008V013 SLP324 P0005 60069 T10111028 11006 21028 58025 FZRANO


Station Type Date Time Source
KGAI Decoded METAR 2019/02/20 17:56 UTC NOAA

Station name not available
Feb 20, 2019 - 12:56 PM EST / 2019.02.20 1756 UTC
Wind: from the ESE (120 degrees) at 9 MPH (8 KT):0
Visibility: 8 mile(s):0
Sky conditions: overcast
Weather: light snow
Precipitation last hour: 0.05 inches
Temperature: 30.0 F (-1.1 C)
Windchill: 21 F (-6 C):1
Dew Point: 27.0 F (-2.8 C)
Relative Humidity: 88%
Pressure (altimeter): 30.39 in. Hg (1029 hPa)
Pressure tendency: 0.07 inches (2.5 hPa) lower than three hours ago
ob: KGAI 201756Z AUTO 12008KT 8SM -SN OVC009 M01/M03 A3039 RMK AO2 CIG 008V013 SLP324 P0005 60069 T10111028 11006 21028 58025 FZRANO
cycle: 18

Station Type Date Time Source
KGAI TAF UTC NOAA

Error!


Example: see airport list